Time;durP1;ratioP1;P1;durP2;ratioP2;P2;SDS_P1;SDS_P2;PMS_P1;PMS_P2;Temp;Humidity;BMP_temperature;BMP_pressure;BME280_temperature;BME280_humidity;BME280_pressure;Samples;Min_cycle;Max_cycle;Signal;HPM_P1;HPM_P2
2024/02/26 00:01:54;;;;;;;;;;;;;;;;;;5051615;28;20362;-65
2024/02/26 00:04:21;;;;;;;;;;;;;;;;;;5071679;28;19925;-65
2024/02/26 00:06:49;;;;;;;;;;;;;;;;;;5054592;28;19932;-65
2024/02/26 00:09:15;;;;;;;;;;;;;;;;;;5055721;28;19978;-65
2024/02/26 00:11:41;;;;;;;;;;;;;;;;;;5055960;28;20014;-65
2024/02/26 00:14:07;;;;;;;;;;;;;;;;;;5055632;28;20070;-64
2024/02/26 00:16:33;;;;;;;;;;;;;;;;;;5055811;28;19929;-64
2024/02/26 00:18:59;;;;;;;;;;;;;;;;;;5054550;28;19921;-64
2024/02/26 00:21:25;;;;;;;;;;;;;;;;;;5055175;28;19920;-64
2024/02/26 00:23:51;;;;;;;;;;;;;;;;;;5054653;28;20258;-64
2024/02/26 00:26:17;;;;;;;;;;;;;;;;;;5055088;28;19974;-64
2024/02/26 00:28:43;;;;;;;;;;;;;;;;;;5054884;28;19970;-63
2024/02/26 00:31:09;;;;;;;;;;;;;;;;;;5055535;28;19921;-63
2024/02/26 00:33:34;;;;;;;;;;;;;;;;;;5054585;28;19967;-64
2024/02/26 00:36:00;;;;;;;;;;;;;;;;;;5055464;28;19931;-64
2024/02/26 00:38:26;;;;;;;;;;;;;;;;;;5055647;28;19983;-64
2024/02/26 00:40:52;;;;;;;;;;;;;;;;;;5055281;28;20374;-64
2024/02/26 00:43:18;;;;;;;;;;;;;;;;;;5053654;28;19952;-64
2024/02/26 00:45:46;;;;;;;;;;;;;;;;;;5055482;28;19960;-64
2024/02/26 00:48:13;;;;;;;;;;;;;;;;;;5055045;28;20019;-64
2024/02/26 00:50:39;;;;;;;;;;;;;;;;;;5074694;28;19920;-64
2024/02/26 00:53:05;;;;;;;;;;;;;;;;;;5075289;28;19928;-64
2024/02/26 00:55:31;;;;;;;;;;;;;;;;;;5074868;28;20394;-64
2024/02/26 00:57:57;;;;;;;;;;;;;;;;;;5075269;28;19927;-64
2024/02/26 01:00:23;;;;;;;;;;;;;;;;;;5068746;28;19956;-64
2024/02/26 01:02:49;;;;;;;;;;;;;;;;;;5066000;28;19955;-64
2024/02/26 01:05:16;;;;;;;;;;;;;;;;;;5074972;28;19925;-64
2024/02/26 01:07:42;;;;;;;;;;;;;;;;;;5073869;28;19932;-65
2024/02/26 01:10:08;;;;;;;;;;;;;;;;;;5073897;28;19920;-65
2024/02/26 01:12:34;;;;;;;;;;;;;;;;;;5054290;28;19929;-65
2024/02/26 01:15:00;;;;;;;;;;;;;;;;;;5053346;28;20465;-65
2024/02/26 01:17:26;;;;;;;;;;;;;;;;;;5055070;28;20040;-65
2024/02/26 01:19:53;;;;;;;;;;;;;;;;;;5054876;28;19927;-65
2024/02/26 01:22:19;;;;;;;;;;;;;;;;;;5055282;28;19924;-65
2024/02/26 01:24:45;;;;;;;;;;;;;;;;;;5054538;28;20321;-65
2024/02/26 01:27:11;;;;;;;;;;;;;;;;;;5053424;28;19921;-65
2024/02/26 01:29:37;;;;;;;;;;;;;;;;;;5054800;28;19920;-65
2024/02/26 01:32:04;;;;;;;;;;;;;;;;;;5054647;28;19970;-65
2024/02/26 01:34:30;;;;;;;;;;;;;;;;;;5070028;28;19925;-65
2024/02/26 01:36:56;;;;;;;;;;;;;;;;;;5054528;28;19924;-66
2024/02/26 01:39:22;;;;;;;;;;;;;;;;;;5055460;28;19921;-65
2024/02/26 01:41:48;;;;;;;;;;;;;;;;;;5074615;28;19928;-65
2024/02/26 01:44:14;;;;;;;;;;;;;;;;;;5074307;28;19921;-65
2024/02/26 01:46:40;;;;;;;;;;;;;;;;;;5074684;28;19925;-65
2024/02/26 01:49:06;;;;;;;;;;;;;;;;;;5089938;28;20273;-65
2024/02/26 01:51:32;;;;;;;;;;;;;;;;;;5074443;28;19921;-65
2024/02/26 01:53:58;;;;;;;;;;;;;;;;;;5074183;28;19925;-64
2024/02/26 01:56:28;;;;;;;;;;;;;;;;;;5072500;28;19939;-64
2024/02/26 01:58:54;;;;;;;;;;;;;;;;;;5046484;28;19982;-64
2024/02/26 02:01:19;;;;;;;;;;;;;;;;;;5033547;28;20016;-64
2024/02/26 02:03:45;;;;;;;;;;;;;;;;;;5048426;28;20398;-64
2024/02/26 02:06:11;;;;;;;;;;;;;;;;;;5033116;28;20282;-64
2024/02/26 02:08:37;;;;;;;;;;;;;;;;;;5031879;28;19967;-64
2024/02/26 02:11:03;;;;;;;;;;;;;;;;;;5048355;28;19924;-64
2024/02/26 02:13:29;;;;;;;;;;;;;;;;;;5066471;28;19932;-64
2024/02/26 02:15:55;;;;;;;;;;;;;;;;;;5051707;28;20420;-64
2024/02/26 02:18:21;;;;;;;;;;;;;;;;;;5053834;28;19920;-64
2024/02/26 02:20:47;;;;;;;;;;;;;;;;;;5053786;28;19928;-64
2024/02/26 02:23:14;;;;;;;;;;;;;;;;;;5050363;28;19925;-64
2024/02/26 02:25:39;;;;;;;;;;;;;;;;;;5050995;28;19959;-64
2024/02/26 02:28:05;;;;;;;;;;;;;;;;;;5052702;28;19974;-64
2024/02/26 02:30:33;;;;;;;;;;;;;;;;;;5051617;28;20374;-64
2024/02/26 02:32:59;;;;;;;;;;;;;;;;;;5052645;28;20023;-64
2024/02/26 02:35:24;;;;;;;;;;;;;;;;;;5052281;28;20012;-64
2024/02/26 02:37:50;;;;;;;;;;;;;;;;;;5052221;28;19921;-64
2024/02/26 02:40:16;;;;;;;;;;;;;;;;;;5050191;28;20021;-64
2024/02/26 02:42:42;;;;;;;;;;;;;;;;;;5053121;28;19927;-64
2024/02/26 02:45:08;;;;;;;;;;;;;;;;;;5051858;28;20007;-64
2024/02/26 02:47:34;;;;;;;;;;;;;;;;;;5053712;28;20414;-64
2024/02/26 02:50:00;;;;;;;;;;;;;;;;;;5053347;28;20007;-64
2024/02/26 02:52:26;;;;;;;;;;;;;;;;;;5052984;28;19974;-64
2024/02/26 02:54:52;;;;;;;;;;;;;;;;;;5051782;28;20023;-64
2024/02/26 02:57:18;;;;;;;;;;;;;;;;;;5051441;28;20004;-64
2024/02/26 02:59:43;;;;;;;;;;;;;;;;;;5053234;28;20013;-64
2024/02/26 03:02:09;;;;;;;;;;;;;;;;;;5051466;28;19967;-64
2024/02/26 03:04:35;;;;;;;;;;;;;;;;;;5053635;28;19964;-65
2024/02/26 03:07:01;;;;;;;;;;;;;;;;;;5052700;28;19921;-65
2024/02/26 03:09:27;;;;;;;;;;;;;;;;;;5075194;22;20286;-64
2024/02/26 03:11:53;;;;;;;;;;;;;;;;;;5028521;28;19925;-64
2024/02/26 03:14:19;;;;;;;;;;;;;;;;;;5031005;28;19924;-64
2024/02/26 03:16:45;;;;;;;;;;;;;;;;;;5032244;28;19932;-64
2024/02/26 03:19:11;;;;;;;;;;;;;;;;;;5029947;28;19928;-64
2024/02/26 03:21:37;;;;;;;;;;;;;;;;;;5034355;28;19932;-62
2024/02/26 03:24:03;;;;;;;;;;;;;;;;;;5051895;28;19924;-64
2024/02/26 03:26:31;;;;;;;;;;;;;;;;;;5050169;28;19920;-64
2024/02/26 03:28:57;;;;;;;;;;;;;;;;;;5031953;28;19968;-64
2024/02/26 03:31:22;;;;;;;;;;;;;;;;;;5031579;28;19968;-64
2024/02/26 03:33:48;;;;;;;;;;;;;;;;;;5031591;28;19921;-64
2024/02/26 03:36:14;;;;;;;;;;;;;;;;;;5031648;28;19929;-64
2024/02/26 03:38:40;;;;;;;;;;;;;;;;;;5034620;28;19921;-64
2024/02/26 03:41:08;;;;;;;;;;;;;;;;;;5052321;28;19925;-64
2024/02/26 03:43:34;;;;;;;;;;;;;;;;;;5050662;28;19921;-65
2024/02/26 03:46:00;;;;;;;;;;;;;;;;;;5031941;28;19943;-64
2024/02/26 03:48:26;;;;;;;;;;;;;;;;;;5031081;28;20473;-64
2024/02/26 03:50:52;;;;;;;;;;;;;;;;;;5031501;28;19929;-64
2024/02/26 03:53:18;;;;;;;;;;;;;;;;;;5031125;28;19927;-64
2024/02/26 03:55:44;;;;;;;;;;;;;;;;;;5031729;28;20397;-63
2024/02/26 03:58:09;;;;;;;;;;;;;;;;;;5032407;28;19921;-64
2024/02/26 04:00:35;;;;;;;;;;;;;;;;;;5049677;28;19925;-62
2024/02/26 04:03:01;;;;;;;;;;;;;;;;;;5051097;28;19921;-62
2024/02/26 04:05:27;;;;;;;;;;;;;;;;;;5051127;28;19921;-63
2024/02/26 04:07:53;;;;;;;;;;;;;;;;;;5050892;28;19928;-63
2024/02/26 04:10:19;;;;;;;;;;;;;;;;;;5048497;28;19924;-64
2024/02/26 04:12:46;;;;;;;;;;;;;;;;;;5030379;28;20448;-64
2024/02/26 04:15:12;;;;;;;;;;;;;;;;;;5031897;28;19936;-64
2024/02/26 04:17:38;;;;;;;;;;;;;;;;;;5031838;28;20286;-64
2024/02/26 04:20:05;;;;;;;;;;;;;;;;;;5031914;28;19928;-64
2024/02/26 04:22:32;;;;;;;;;;;;;;;;;;5031805;28;20020;-64
2024/02/26 04:24:57;;;;;;;;;;;;;;;;;;5032454;28;19921;-64
2024/02/26 04:27:24;;;;;;;;;;;;;;;;;;5030583;28;19928;-64
2024/02/26 04:29:49;;;;;;;;;;;;;;;;;;5047183;28;19921;-64
2024/02/26 04:32:15;;;;;;;;;;;;;;;;;;5023163;28;19929;-64
2024/02/26 04:34:42;;;;;;;;;;;;;;;;;;5024543;28;20286;-64
2024/02/26 04:37:07;;;;;;;;;;;;;;;;;;5029513;28;19925;-64
2024/02/26 04:39:33;;;;;;;;;;;;;;;;;;5031256;28;19928;-63
2024/02/26 04:42:03;;;;;;;;;;;;;;;;;;5031607;28;20314;-63
2024/02/26 04:44:29;;;;;;;;;;;;;;;;;;5030857;28;19921;-63
2024/02/26 04:46:55;;;;;;;;;;;;;;;;;;5033885;28;19928;-63
2024/02/26 04:49:21;;;;;;;;;;;;;;;;;;5049370;28;19921;-63
2024/02/26 04:51:48;;;;;;;;;;;;;;;;;;5034376;28;19929;-63
2024/02/26 04:54:14;;;;;;;;;;;;;;;;;;5050439;28;19935;-64
2024/02/26 04:56:39;;;;;;;;;;;;;;;;;;5035678;28;19925;-62
2024/02/26 04:59:05;;;;;;;;;;;;;;;;;;5035372;28;19925;-63
2024/02/26 05:01:31;;;;;;;;;;;;;;;;;;5035556;28;20430;-63
2024/02/26 05:03:57;;;;;;;;;;;;;;;;;;5035804;28;19921;-63
2024/02/26 05:06:23;;;;;;;;;;;;;;;;;;5035347;28;19921;-63
2024/02/26 05:08:49;;;;;;;;;;;;;;;;;;5035181;28;19925;-63
2024/02/26 05:11:15;;;;;;;;;;;;;;;;;;5045055;28;19936;-63
2024/02/26 05:13:41;;;;;;;;;;;;;;;;;;5054981;28;19939;-63
2024/02/26 05:16:07;;;;;;;;;;;;;;;;;;5055288;28;19925;-64
2024/02/26 05:18:33;;;;;;;;;;;;;;;;;;5039502;28;19939;-64
2024/02/26 05:20:59;;;;;;;;;;;;;;;;;;5035441;28;20378;-64
2024/02/26 05:23:24;;;;;;;;;;;;;;;;;;5034985;28;19925;-64
2024/02/26 05:25:50;;;;;;;;;;;;;;;;;;5034694;28;19925;-64
2024/02/26 05:28:16;;;;;;;;;;;;;;;;;;5034649;28;19932;-64
2024/02/26 05:30:42;;;;;;;;;;;;;;;;;;5034977;28;19936;-64
2024/02/26 05:33:08;;;;;;;;;;;;;;;;;;5034711;28;19925;-64
2024/02/26 05:35:34;;;;;;;;;;;;;;;;;;5034757;28;19921;-64
2024/02/26 05:38:00;;;;;;;;;;;;;;;;;;5038541;28;19938;-64
2024/02/26 05:40:26;;;;;;;;;;;;;;;;;;5054777;28;19921;-64
2024/02/26 05:42:52;;;;;;;;;;;;;;;;;;5054441;28;19925;-63
2024/02/26 05:45:18;;;;;;;;;;;;;;;;;;5054249;28;19944;-62
2024/02/26 05:47:44;;;;;;;;;;;;;;;;;;5052804;28;20367;-64
2024/02/26 05:50:10;;;;;;;;;;;;;;;;;;5053875;28;19921;-64
2024/02/26 05:52:36;;;;;;;;;;;;;;;;;;5054434;28;19932;-64
2024/02/26 05:55:03;;;;;;;;;;;;;;;;;;5053565;28;19929;-63
2024/02/26 05:57:28;;;;;;;;;;;;;;;;;;5054136;28;19920;-62
2024/02/26 05:59:54;;;;;;;;;;;;;;;;;;5038840;28;19921;-63
2024/02/26 06:02:20;;;;;;;;;;;;;;;;;;5033296;28;19921;-63
2024/02/26 06:04:46;;;;;;;;;;;;;;;;;;5032792;28;19929;-63
2024/02/26 06:07:12;;;;;;;;;;;;;;;;;;5034212;28;19971;-63
2024/02/26 06:09:39;;;;;;;;;;;;;;;;;;5034050;28;19921;-62
2024/02/26 06:12:05;;;;;;;;;;;;;;;;;;5044089;28;19931;-63
2024/02/26 06:14:31;;;;;;;;;;;;;;;;;;5034129;28;20055;-62
2024/02/26 06:16:57;;;;;;;;;;;;;;;;;;5034099;28;20012;-62
2024/02/26 06:19:23;;;;;;;;;;;;;;;;;;5049086;28;20108;-63
2024/02/26 06:21:50;;;;;;;;;;;;;;;;;;5049135;28;20011;-63
2024/02/26 06:24:16;;;;;;;;;;;;;;;;;;5033838;28;19921;-63
2024/02/26 06:26:42;;;;;;;;;;;;;;;;;;5033821;28;20154;-63
2024/02/26 06:29:07;;;;;;;;;;;;;;;;;;5040353;28;20352;-63
2024/02/26 06:31:33;;;;;;;;;;;;;;;;;;5053401;28;20357;-63
2024/02/26 06:33:59;;;;;;;;;;;;;;;;;;5031882;28;19925;-63
2024/02/26 06:36:25;;;;;;;;;;;;;;;;;;5033403;28;19974;-63
2024/02/26 06:38:53;;;;;;;;;;;;;;;;;;5033507;28;19921;-63
2024/02/26 06:41:19;;;;;;;;;;;;;;;;;;5032041;28;19928;-63
2024/02/26 06:43:45;;;;;;;;;;;;;;;;;;5033266;28;20519;-63
2024/02/26 06:46:11;;;;;;;;;;;;;;;;;;5033175;28;20241;-64
2024/02/26 06:48:37;;;;;;;;;;;;;;;;;;5032264;28;19979;-63
2024/02/26 06:51:03;;;;;;;;;;;;;;;;;;5032473;28;20271;-63
2024/02/26 06:53:29;;;;;;;;;;;;;;;;;;5033122;28;19925;-63
2024/02/26 06:55:57;;;;;;;;;;;;;;;;;;5047421;28;21288;-63
2024/02/26 06:58:23;;;;;;;;;;;;;;;;;;5035922;28;19982;-63
2024/02/26 07:00:49;;;;;;;;;;;;;;;;;;5049357;28;19928;-63
2024/02/26 07:03:15;;;;;;;;;;;;;;;;;;5053913;28;19921;-63
2024/02/26 07:05:41;;;;;;;;;;;;;;;;;;5032998;28;19921;-63
2024/02/26 07:08:07;;;;;;;;;;;;;;;;;;5032949;28;19921;-63
2024/02/26 07:10:32;;;;;;;;;;;;;;;;;;5044477;28;20391;-64
2024/02/26 07:12:58;;;;;;;;;;;;;;;;;;5013039;28;20015;-64
2024/02/26 07:15:24;;;;;;;;;;;;;;;;;;5012946;28;19921;-64
2024/02/26 07:17:50;;;;;;;;;;;;;;;;;;5013359;28;19928;-64
2024/02/26 07:20:18;;;;;;;;;;;;;;;;;;5029605;28;20343;-64
2024/02/26 07:22:44;;;;;;;;;;;;;;;;;;5031903;28;19925;-64
2024/02/26 07:25:13;;;;;;;;;;;;;;;;;;5031567;28;19928;-64
2024/02/26 07:27:38;;;;;;;;;;;;;;;;;;5027009;28;19928;-63
2024/02/26 07:30:04;;;;;;;;;;;;;;;;;;5031752;28;19921;-63
2024/02/26 07:32:30;;;;;;;;;;;;;;;;;;5028986;28;20401;-63
2024/02/26 07:34:56;;;;;;;;;;;;;;;;;;5031396;28;19932;-63
2024/02/26 07:37:22;;;;;;;;;;;;;;;;;;5033032;28;19925;-63
2024/02/26 07:39:48;;;;;;;;;;;;;;;;;;5017914;28;19928;-63
2024/02/26 07:42:14;;;;;;;;;;;;;;;;;;5029714;28;20298;-63
2024/02/26 07:44:42;;;;;;;;;;;;;;;;;;5032024;28;19925;-63
2024/02/26 07:47:08;;;;;;;;;;;;;;;;;;5032785;28;19932;-63
2024/02/26 07:49:34;;;;;;;;;;;;;;;;;;5016348;28;20299;-63
2024/02/26 07:52:00;;;;;;;;;;;;;;;;;;5035499;28;19920;-63
2024/02/26 07:54:26;;;;;;;;;;;;;;;;;;5042383;28;19932;-63
2024/02/26 07:56:52;;;;;;;;;;;;;;;;;;5037146;28;19929;-63
2024/02/26 07:59:18;;;;;;;;;;;;;;;;;;5051188;28;19967;-63
2024/02/26 08:01:45;;;;;;;;;;;;;;;;;;5067026;28;19924;-62
2024/02/26 08:04:11;;;;;;;;;;;;;;;;;;5051501;28;20016;-62
2024/02/26 08:06:37;;;;;;;;;;;;;;;;;;5045803;28;20355;-63
2024/02/26 08:09:04;;;;;;;;;;;;;;;;;;5029660;28;20015;-63
2024/02/26 08:11:30;;;;;;;;;;;;;;;;;;5032620;28;19925;-63
2024/02/26 08:13:56;;;;;;;;;;;;;;;;;;5028743;28;19929;-62
2024/02/26 08:16:22;;;;;;;;;;;;;;;;;;5030893;28;19961;-63
2024/02/26 08:18:48;;;;;;;;;;;;;;;;;;5030557;28;19929;-63
2024/02/26 08:21:13;;;;;;;;;;;;;;;;;;5048339;28;19929;-63
2024/02/26 08:23:39;;;;;;;;;;;;;;;;;;5050600;28;19921;-63
2024/02/26 08:26:07;;;;;;;;;;;;;;;;;;5035828;28;19932;-63
2024/02/26 08:28:33;;;;;;;;;;;;;;;;;;5046379;28;19925;-63
2024/02/26 08:30:58;;;;;;;;;;;;;;;;;;5054221;28;19931;-63
2024/02/26 08:33:24;;;;;;;;;;;;;;;;;;5040999;28;20402;-63
2024/02/26 08:35:50;;;;;;;;;;;;;;;;;;5034016;28;19921;-63
2024/02/26 08:38:16;;;;;;;;;;;;;;;;;;5035707;28;19928;-63
2024/02/26 08:40:42;;;;;;;;;;;;;;;;;;5035884;28;19937;-63
2024/02/26 08:43:09;;;;;;;;;;;;;;;;;;5035824;28;19925;-63
2024/02/26 08:45:35;;;;;;;;;;;;;;;;;;5036252;28;20340;-63
2024/02/26 08:48:01;;;;;;;;;;;;;;;;;;5035364;28;20028;-63
2024/02/26 08:50:27;;;;;;;;;;;;;;;;;;5035719;28;19921;-63
2024/02/26 08:52:53;;;;;;;;;;;;;;;;;;5049951;28;19933;-63
2024/02/26 08:55:19;;;;;;;;;;;;;;;;;;5035371;28;20502;-63
2024/02/26 08:57:45;;;;;;;;;;;;;;;;;;5035459;28;19921;-63
2024/02/26 09:00:12;;;;;;;;;;;;;;;;;;5050863;28;19975;-63
2024/02/26 09:02:38;;;;;;;;;;;;;;;;;;5035657;28;19936;-63
2024/02/26 09:05:04;;;;;;;;;;;;;;;;;;5035369;28;19927;-63
2024/02/26 09:07:30;;;;;;;;;;;;;;;;;;5035549;28;20003;-63
2024/02/26 09:09:56;;;;;;;;;;;;;;;;;;5034663;28;20366;-63
2024/02/26 09:12:22;;;;;;;;;;;;;;;;;;5035113;28;20697;-63
2024/02/26 09:14:48;;;;;;;;;;;;;;;;;;5035315;28;19925;-63
2024/02/26 09:17:14;;;;;;;;;;;;;;;;;;5035344;28;19960;-63
2024/02/26 09:19:42;;;;;;;;;;;;;;;;;;5034645;28;19925;-63
2024/02/26 09:22:07;;;;;;;;;;;;;;;;;;5033579;28;19999;-63
2024/02/26 09:24:33;;;;;;;;;;;;;;;;;;5033863;28;20541;-63
2024/02/26 09:26:59;;;;;;;;;;;;;;;;;;5033577;28;19921;-63
2024/02/26 09:29:26;;;;;;;;;;;;;;;;;;5032045;28;19929;-63
2024/02/26 09:31:52;;;;;;;;;;;;;;;;;;5033825;28;19929;-63
2024/02/26 09:34:18;;;;;;;;;;;;;;;;;;5034633;28;20315;-62
2024/02/26 09:36:44;;;;;;;;;;;;;;;;;;5034783;28;19921;-62
2024/02/26 09:39:11;;;;;;;;;;;;;;;;;;5033208;28;19921;-63
2024/02/26 09:41:37;;;;;;;;;;;;;;;;;;5034475;28;19931;-63
2024/02/26 09:44:03;;;;;;;;;;;;;;;;;;5034070;28;19921;-63
2024/02/26 09:46:29;;;;;;;;;;;;;;;;;;5032481;28;19921;-63
2024/02/26 09:48:55;;;;;;;;;;;;;;;;;;5033758;28;20292;-63
2024/02/26 09:51:23;;;;;;;;;;;;;;;;;;5052077;28;20011;-63
2024/02/26 09:53:49;;;;;;;;;;;;;;;;;;5047643;28;20270;-63
2024/02/26 09:56:15;;;;;;;;;;;;;;;;;;5053938;28;19920;-64
2024/02/26 09:58:41;;;;;;;;;;;;;;;;;;5046150;28;19925;-63
2024/02/26 10:01:06;;;;;;;;;;;;;;;;;;5034360;28;19921;-62
2024/02/26 10:03:32;;;;;;;;;;;;;;;;;;5029683;28;19925;-63
2024/02/26 10:05:59;;;;;;;;;;;;;;;;;;5032865;28;19921;-63
2024/02/26 10:08:25;;;;;;;;;;;;;;;;;;5032373;28;19932;-63
2024/02/26 10:10:50;;;;;;;;;;;;;;;;;;5039749;28;19926;-63
2024/02/26 10:13:16;;;;;;;;;;;;;;;;;;5033822;28;20008;-63
2024/02/26 10:15:42;;;;;;;;;;;;;;;;;;5034152;28;20011;-63
2024/02/26 10:18:08;;;;;;;;;;;;;;;;;;5033455;28;20589;-63
2024/02/26 10:20:34;;;;;;;;;;;;;;;;;;5032576;28;20397;-63
2024/02/26 10:23:00;;;;;;;;;;;;;;;;;;5033903;28;19921;-63
2024/02/26 10:25:26;;;;;;;;;;;;;;;;;;5033507;28;20355;-64
2024/02/26 10:27:52;;;;;;;;;;;;;;;;;;5045701;28;19929;-62
2024/02/26 10:30:21;;;;;;;;;;;;;;;;;;5053501;28;19928;-64
2024/02/26 10:32:47;;;;;;;;;;;;;;;;;;5053727;28;19935;-63
2024/02/26 10:35:13;;;;;;;;;;;;;;;;;;5038086;28;19921;-63
2024/02/26 10:37:39;;;;;;;;;;;;;;;;;;5033483;28;19932;-63
2024/02/26 10:40:05;;;;;;;;;;;;;;;;;;5033582;28;19921;-63
2024/02/26 10:42:31;;;;;;;;;;;;;;;;;;5032190;28;19921;-63
2024/02/26 10:44:57;;;;;;;;;;;;;;;;;;5033000;28;19924;-63
2024/02/26 10:47:22;;;;;;;;;;;;;;;;;;5048304;28;19925;-63
2024/02/26 10:49:48;;;;;;;;;;;;;;;;;;5032179;28;19921;-63
2024/02/26 10:52:14;;;;;;;;;;;;;;;;;;5032098;28;19983;-64
2024/02/26 10:54:41;;;;;;;;;;;;;;;;;;5030681;28;19936;-63
2024/02/26 10:57:07;;;;;;;;;;;;;;;;;;5031703;28;19921;-62
2024/02/26 10:59:32;;;;;;;;;;;;;;;;;;5032207;28;20243;-62
2024/02/26 11:01:58;;;;;;;;;;;;;;;;;;5032504;28;19921;-63
2024/02/26 11:04:27;;;;;;;;;;;;;;;;;;5017270;28;19925;-63
2024/02/26 11:06:53;;;;;;;;;;;;;;;;;;5031817;28;19929;-63
2024/02/26 11:09:18;;;;;;;;;;;;;;;;;;5030129;28;19925;-63
2024/02/26 11:11:44;;;;;;;;;;;;;;;;;;5031988;28;19932;-63
2024/02/26 11:14:10;;;;;;;;;;;;;;;;;;5031798;28;20386;-63
2024/02/26 11:16:36;;;;;;;;;;;;;;;;;;5032556;28;19928;-63
2024/02/26 11:19:03;;;;;;;;;;;;;;;;;;5050592;28;19925;-63
2024/02/26 11:22:02;;;;;;;;;;;;;;;;;;5052184;28;19975;-64
2024/02/26 11:24:21;;;;;;;;;;;;;;;;;;5050826;28;19920;-65
2024/02/26 11:26:47;;;;;;;;;;;;;;;;;;5034465;28;19935;-64
2024/02/26 11:29:13;;;;;;;;;;;;;;;;;;5032094;28;20000;-63
2024/02/26 11:31:39;;;;;;;;;;;;;;;;;;5032129;28;20345;-63
2024/02/26 11:34:05;;;;;;;;;;;;;;;;;;5032118;28;20293;-63
2024/02/26 11:36:31;;;;;;;;;;;;;;;;;;5031410;28;19924;-63
2024/02/26 11:38:57;;;;;;;;;;;;;;;;;;5032064;28;20543;-63
2024/02/26 11:41:23;;;;;;;;;;;;;;;;;;5032108;28;19921;-63
2024/02/26 11:43:49;;;;;;;;;;;;;;;;;;5030643;28;19975;-63
2024/02/26 11:46:15;;;;;;;;;;;;;;;;;;5014359;28;19990;-63
2024/02/26 11:48:41;;;;;;;;;;;;;;;;;;5032007;28;20362;-63
2024/02/26 11:51:06;;;;;;;;;;;;;;;;;;5032068;28;19974;-63
2024/02/26 11:53:35;;;;;;;;;;;;;;;;;;5032790;28;20055;-63
2024/02/26 11:56:00;;;;;;;;;;;;;;;;;;5037661;28;20051;-63
2024/02/26 11:58:26;;;;;;;;;;;;;;;;;;5038599;28;19921;-63
2024/02/26 12:00:52;;;;;;;;;;;;;;;;;;5037216;28;19925;-63
2024/02/26 12:03:18;;;;;;;;;;;;;;;;;;5038674;28;19921;-63
2024/02/26 12:05:44;;;;;;;;;;;;;;;;;;5038686;28;19931;-63
2024/02/26 12:08:10;;;;;;;;;;;;;;;;;;5038786;28;19928;-63
2024/02/26 12:10:38;;;;;;;;;;;;;;;;;;5033130;28;20315;-64
2024/02/26 12:13:04;;;;;;;;;;;;;;;;;;5038413;28;19931;-63
2024/02/26 12:15:30;;;;;;;;;;;;;;;;;;5038281;28;19996;-63
2024/02/26 12:17:56;;;;;;;;;;;;;;;;;;5038292;28;19921;-64
2024/02/26 12:20:21;;;;;;;;;;;;;;;;;;5038113;28;19925;-64
2024/02/26 12:22:48;;;;;;;;;;;;;;;;;;5037872;28;19932;-64
2024/02/26 12:25:14;;;;;;;;;;;;;;;;;;5037099;28;20027;-64
2024/02/26 12:27:40;;;;;;;;;;;;;;;;;;5037251;28;20514;-64
2024/02/26 12:30:06;;;;;;;;;;;;;;;;;;5036269;28;20468;-64
2024/02/26 12:32:32;;;;;;;;;;;;;;;;;;5052956;28;19932;-64
2024/02/26 12:34:58;;;;;;;;;;;;;;;;;;5037192;28;19921;-64
2024/02/26 12:37:24;;;;;;;;;;;;;;;;;;5053122;28;20271;-64
2024/02/26 12:39:49;;;;;;;;;;;;;;;;;;5037404;28;20413;-63
2024/02/26 12:42:15;;;;;;;;;;;;;;;;;;5035994;28;19921;-64
2024/02/26 12:44:41;;;;;;;;;;;;;;;;;;5037997;28;19922;-63
2024/02/26 12:47:07;;;;;;;;;;;;;;;;;;5036179;28;19928;-64
2024/02/26 12:49:33;;;;;;;;;;;;;;;;;;5038259;28;20394;-64
2024/02/26 12:52:02;;;;;;;;;;;;;;;;;;5038107;28;20252;-64
2024/02/26 12:54:28;;;;;;;;;;;;;;;;;;5036284;28;19960;-63
2024/02/26 12:56:54;;;;;;;;;;;;;;;;;;5038300;28;19968;-63
2024/02/26 12:59:20;;;;;;;;;;;;;;;;;;5048326;28;20388;-64
2024/02/26 13:01:46;;;;;;;;;;;;;;;;;;5057938;28;19975;-64
2024/02/26 13:04:12;;;;;;;;;;;;;;;;;;5073330;28;20012;-64
2024/02/26 13:06:37;;;;;;;;;;;;;;;;;;5037327;28;19964;-64
2024/02/26 13:09:04;;;;;;;;;;;;;;;;;;5032388;28;20692;-64
2024/02/26 13:11:31;;;;;;;;;;;;;;;;;;5033441;28;19986;-64
2024/02/26 13:13:56;;;;;;;;;;;;;;;;;;5034719;28;19925;-64
2024/02/26 13:16:22;;;;;;;;;;;;;;;;;;5034958;28;19925;-65
2024/02/26 13:18:48;;;;;;;;;;;;;;;;;;5033587;28;19944;-64
2024/02/26 13:21:17;;;;;;;;;;;;;;;;;;5034489;28;19932;-63
2024/02/26 13:23:43;;;;;;;;;;;;;;;;;;5034665;28;20000;-64
2024/02/26 13:26:09;;;;;;;;;;;;;;;;;;5031718;28;19996;-64
2024/02/26 13:28:35;;;;;;;;;;;;;;;;;;5034525;28;19921;-62
2024/02/26 13:31:01;;;;;;;;;;;;;;;;;;5034636;28;19979;-63
2024/02/26 13:33:27;;;;;;;;;;;;;;;;;;5034287;28;20016;-64
2024/02/26 13:35:53;;;;;;;;;;;;;;;;;;5034549;28;19967;-64
2024/02/26 13:38:19;;;;;;;;;;;;;;;;;;5032806;28;19925;-63
2024/02/26 13:40:45;;;;;;;;;;;;;;;;;;5032479;28;20333;-63
2024/02/26 13:43:11;;;;;;;;;;;;;;;;;;5034221;28;19967;-64
2024/02/26 13:45:37;;;;;;;;;;;;;;;;;;5034228;28;19975;-64
2024/02/26 13:48:03;;;;;;;;;;;;;;;;;;5032834;28;19971;-64
2024/02/26 13:50:29;;;;;;;;;;;;;;;;;;5032878;28;20365;-64
2024/02/26 13:52:56;;;;;;;;;;;;;;;;;;5033862;28;19947;-63
2024/02/26 13:55:23;;;;;;;;;;;;;;;;;;5032496;28;19975;-64
2024/02/26 13:57:51;;;;;;;;;;;;;;;;;;5034100;28;19921;-64
2024/02/26 14:00:17;;;;;;;;;;;;;;;;;;5049587;28;19992;-64
2024/02/26 14:02:43;;;;;;;;;;;;;;;;;;5033591;28;20574;-63
2024/02/26 14:05:09;;;;;;;;;;;;;;;;;;5033902;28;19921;-63
2024/02/26 14:07:35;;;;;;;;;;;;;;;;;;5033890;28;19994;-63
2024/02/26 14:10:01;;;;;;;;;;;;;;;;;;5032187;28;20557;-63
2024/02/26 14:12:27;;;;;;;;;;;;;;;;;;5032567;28;19947;-63
2024/02/26 14:14:53;;;;;;;;;;;;;;;;;;5032332;28;20018;-64
2024/02/26 14:17:19;;;;;;;;;;;;;;;;;;5033397;28;20363;-63
2024/02/26 14:19:47;;;;;;;;;;;;;;;;;;5031706;28;19932;-63
2024/02/26 14:22:13;;;;;;;;;;;;;;;;;;5032913;28;20259;-63
2024/02/26 14:24:39;;;;;;;;;;;;;;;;;;5032344;28;20008;-63
2024/02/26 14:27:05;;;;;;;;;;;;;;;;;;5031456;28;20008;-64
2024/02/26 14:29:32;;;;;;;;;;;;;;;;;;5033708;28;19932;-63
2024/02/26 14:31:58;;;;;;;;;;;;;;;;;;5033505;28;19924;-64
2024/02/26 14:34:23;;;;;;;;;;;;;;;;;;5033177;28;20318;-63
2024/02/26 14:36:49;;;;;;;;;;;;;;;;;;5033541;28;19979;-63
2024/02/26 14:39:15;;;;;;;;;;;;;;;;;;5031677;28;20039;-63
2024/02/26 14:41:42;;;;;;;;;;;;;;;;;;5032169;28;19975;-63
2024/02/26 14:44:08;;;;;;;;;;;;;;;;;;5032020;28;19968;-63
2024/02/26 14:46:34;;;;;;;;;;;;;;;;;;5033098;28;19975;-64
2024/02/26 14:49:00;;;;;;;;;;;;;;;;;;5031846;28;20408;-63
2024/02/26 14:51:25;;;;;;;;;;;;;;;;;;5033103;28;19968;-64
2024/02/26 14:53:53;;;;;;;;;;;;;;;;;;5031002;28;19976;-64
2024/02/26 14:56:19;;;;;;;;;;;;;;;;;;5032557;28;19928;-64
2024/02/26 14:58:45;;;;;;;;;;;;;;;;;;5032341;28;19920;-63
2024/02/26 15:01:11;;;;;;;;;;;;;;;;;;5032932;28;19921;-64
2024/02/26 15:03:37;;;;;;;;;;;;;;;;;;5032762;28;20418;-63
2024/02/26 15:06:03;;;;;;;;;;;;;;;;;;5031477;28;20010;-63
2024/02/26 15:08:29;;;;;;;;;;;;;;;;;;5028229;28;19967;-63
2024/02/26 15:10:55;;;;;;;;;;;;;;;;;;5032041;28;19964;-63
2024/02/26 15:13:21;;;;;;;;;;;;;;;;;;5032414;28;19932;-64
2024/02/26 15:15:47;;;;;;;;;;;;;;;;;;5033375;28;20310;-63
2024/02/26 15:18:15;;;;;;;;;;;;;;;;;;5032205;28;19932;-64
2024/02/26 15:20:42;;;;;;;;;;;;;;;;;;5032603;28;19925;-64
2024/02/26 15:23:08;;;;;;;;;;;;;;;;;;5030577;28;19921;-64
2024/02/26 15:25:34;;;;;;;;;;;;;;;;;;5038221;23;19935;-64
2024/02/26 15:28:00;;;;;;;;;;;;;;;;;;5019625;28;19933;-64
2024/02/26 15:30:29;;;;;;;;;;;;;;;;;;5025873;28;20590;-65
2024/02/26 15:32:55;;;;;;;;;;;;;;;;;;5024786;28;19921;-65
2024/02/26 15:35:21;;;;;;;;;;;;;;;;;;5031240;28;19925;-65
2024/02/26 15:37:47;;;;;;;;;;;;;;;;;;5031996;28;19929;-65
2024/02/26 15:40:13;;;;;;;;;;;;;;;;;;5024810;28;19968;-65
2024/02/26 15:42:39;;;;;;;;;;;;;;;;;;5018379;28;19928;-65
2024/02/26 15:45:05;;;;;;;;;;;;;;;;;;5012634;28;19929;-65
2024/02/26 15:47:31;;;;;;;;;;;;;;;;;;5010031;28;19927;-65
2024/02/26 15:49:57;;;;;;;;;;;;;;;;;;5012013;28;19992;-65
2024/02/26 15:52:23;;;;;;;;;;;;;;;;;;5010758;28;20012;-65
2024/02/26 15:54:50;;;;;;;;;;;;;;;;;;5011365;28;20008;-65
2024/02/26 15:57:17;;;;;;;;;;;;;;;;;;4996333;28;20494;-65
2024/02/26 15:59:43;;;;;;;;;;;;;;;;;;5013324;28;20274;-65
2024/02/26 16:02:09;;;;;;;;;;;;;;;;;;5011610;28;19921;-65
2024/02/26 16:04:35;;;;;;;;;;;;;;;;;;4991835;28;19922;-65
2024/02/26 16:07:01;;;;;;;;;;;;;;;;;;5003017;28;19925;-65
2024/02/26 16:09:28;;;;;;;;;;;;;;;;;;5010027;28;20004;-65
2024/02/26 16:11:54;;;;;;;;;;;;;;;;;;5002837;28;19933;-65
2024/02/26 16:14:20;;;;;;;;;;;;;;;;;;5010100;28;19921;-65
2024/02/26 16:16:46;;;;;;;;;;;;;;;;;;5010643;28;19976;-65
2024/02/26 16:19:12;;;;;;;;;;;;;;;;;;5009788;28;19985;-65
2024/02/26 16:21:38;;;;;;;;;;;;;;;;;;5008831;28;19975;-65
2024/02/26 16:24:04;;;;;;;;;;;;;;;;;;5009123;28;20378;-65
2024/02/26 16:26:30;;;;;;;;;;;;;;;;;;5009121;28;19969;-65
2024/02/26 16:28:56;;;;;;;;;;;;;;;;;;5007748;28;19976;-65
2024/02/26 16:31:21;;;;;;;;;;;;;;;;;;5008407;28;19921;-65
2024/02/26 16:33:48;;;;;;;;;;;;;;;;;;5018240;28;19921;-65
2024/02/26 16:36:14;;;;;;;;;;;;;;;;;;5011705;28;20699;-65
2024/02/26 16:38:40;;;;;;;;;;;;;;;;;;5009902;28;20371;-65